createdAt,value
2023-05-04T00:01:38.675Z,100710.79
2023-05-04T00:04:38.647Z,100707.50
2023-05-04T00:07:38.488Z,100707.42
2023-05-04T00:10:38.543Z,100707.55
2023-05-04T00:13:38.541Z,100711.27
2023-05-04T00:16:38.539Z,100715.45
2023-05-04T00:19:38.501Z,100719.83
2023-05-04T00:22:38.559Z,100720.39
2023-05-04T00:25:31.756Z,100718.59
2023-05-04T00:28:31.614Z,100718.69
2023-05-04T00:31:31.597Z,100718.30
2023-05-04T00:34:33.541Z,100717.00
2023-05-04T00:37:33.634Z,100716.00
2023-05-04T00:40:33.633Z,100709.38
2023-05-04T00:43:34.554Z,100710.54
2023-05-04T00:46:37.730Z,100713.11
2023-05-04T00:49:37.636Z,100714.30
2023-05-04T00:52:37.594Z,100713.04
2023-05-04T00:55:37.658Z,100715.58
2023-05-04T00:58:37.689Z,100716.89
2023-05-04T01:01:37.828Z,100720.27
2023-05-04T01:04:40.688Z,100717.32
2023-05-04T01:07:56.620Z,100718.33
2023-05-04T01:11:02.733Z,100711.86
2023-05-04T01:14:02.965Z,100708.38
2023-05-04T01:17:04.019Z,100706.30
2023-05-04T01:20:05.910Z,100711.87
2023-05-04T01:23:06.722Z,100720.07
2023-05-04T01:25:59.825Z,100720.37
2023-05-04T01:29:03.688Z,100715.89
2023-05-04T01:32:03.642Z,100707.48
2023-05-04T01:35:03.665Z,100710.56
2023-05-04T01:38:03.643Z,100714.64
2023-05-04T01:41:03.627Z,100709.98
2023-05-04T01:44:03.682Z,100703.60
2023-05-04T01:47:03.675Z,100701.45
2023-05-04T01:50:03.922Z,100692.27
2023-05-04T01:53:04.772Z,100696.59
2023-05-04T01:56:04.725Z,100700.88
2023-05-04T01:59:04.715Z,100703.35
2023-05-04T02:02:04.796Z,100700.30
2023-05-04T02:05:04.698Z,100700.97
2023-05-04T02:08:13.723Z,100697.12
2023-05-04T02:11:13.763Z,100696.47
2023-05-04T02:14:15.782Z,100695.52
2023-05-04T02:17:15.679Z,100705.86
2023-05-04T02:20:15.804Z,100707.83
2023-05-04T02:23:15.731Z,100703.60
2023-05-04T02:26:15.893Z,100703.34
2023-05-04T02:29:15.776Z,100698.64
2023-05-04T02:32:15.763Z,100694.36
2023-05-04T02:35:15.739Z,100701.11
2023-05-04T02:38:15.789Z,100704.19
2023-05-04T02:41:15.817Z,100701.59
2023-05-04T02:44:15.781Z,100696.30
2023-05-04T02:47:15.793Z,100693.46
2023-05-04T02:50:16.821Z,100683.81
2023-05-04T02:53:16.799Z,100688.05
2023-05-04T02:56:16.999Z,100696.96
2023-05-04T02:59:16.833Z,100701.84
2023-05-04T03:02:17.781Z,100696.25
2023-05-04T03:05:19.001Z,100694.13
2023-05-04T03:08:18.810Z,100692.28
2023-05-04T03:11:18.864Z,100692.41
2023-05-04T03:14:18.879Z,100695.13
2023-05-04T03:17:18.797Z,100700.60
2023-05-04T03:20:18.825Z,100694.20
2023-05-04T03:23:18.866Z,100687.52
2023-05-04T03:26:18.982Z,100678.36
2023-05-04T03:29:18.909Z,100669.77
2023-05-04T03:32:18.915Z,100666.96
2023-05-04T03:35:24.383Z,100664.35
2023-05-04T03:38:24.866Z,100672.11
2023-05-04T03:41:24.858Z,100676.60
2023-05-04T03:44:25.932Z,100671.80
2023-05-04T03:47:25.915Z,100673.69
2023-05-04T03:50:25.981Z,100683.89
2023-05-04T03:53:25.899Z,100684.96
2023-05-04T03:56:27.907Z,100688.20
2023-05-04T03:59:27.926Z,100694.13
2023-05-04T04:02:29.010Z,100692.20
2023-05-04T04:05:36.978Z,100693.92
2023-05-04T04:08:36.875Z,100700.63
2023-05-04T04:11:37.949Z,100703.54
2023-05-04T04:14:38.996Z,100699.00
2023-05-04T04:17:39.024Z,100695.94
2023-05-04T04:20:38.974Z,100696.35
2023-05-04T04:23:38.950Z,100696.33
2023-05-04T04:26:40.129Z,100696.20
2023-05-04T04:29:41.964Z,100691.77
2023-05-04T04:32:35.480Z,100690.10
2023-05-04T04:35:39.016Z,100697.20
2023-05-04T04:38:40.054Z,100704.77
2023-05-04T04:41:40.084Z,100707.69
2023-05-04T04:44:40.000Z,100708.05
2023-05-04T04:47:40.086Z,100709.00
2023-05-04T04:50:39.990Z,100707.08
2023-05-04T04:53:40.977Z,100713.84
2023-05-04T04:56:40.969Z,100719.77
2023-05-04T04:59:43.969Z,100716.83
2023-05-04T05:02:44.019Z,100716.13
2023-05-04T05:05:37.059Z,100713.98
2023-05-04T05:08:37.004Z,100706.70
2023-05-04T05:11:37.012Z,100710.09
2023-05-04T05:14:38.015Z,100715.25
2023-05-04T05:17:41.209Z,100718.20
2023-05-04T05:20:41.027Z,100721.55
2023-05-04T05:23:42.163Z,100716.75
2023-05-04T05:26:42.184Z,100715.38
2023-05-04T05:29:42.135Z,100706.11
2023-05-04T05:32:43.126Z,100705.19
2023-05-04T05:35:43.593Z,100707.80
2023-05-04T05:38:45.072Z,100706.95
2023-05-04T05:41:45.077Z,100703.42
2023-05-04T05:44:45.123Z,100705.88
2023-05-04T05:47:45.126Z,100700.20
2023-05-04T05:50:45.090Z,100692.71
2023-05-04T05:53:45.634Z,100691.58
2023-05-04T05:56:48.298Z,100685.28
2023-05-04T05:59:51.136Z,100684.25
2023-05-04T06:02:53.252Z,100686.33
2023-05-04T06:05:54.145Z,100685.39
2023-05-04T06:08:54.139Z,100680.11
2023-05-04T06:11:55.588Z,100676.95
2023-05-04T06:14:57.180Z,100676.55
2023-05-04T06:17:58.171Z,100675.55
2023-05-04T06:20:59.146Z,100669.22
2023-05-04T06:23:59.189Z,100672.37
2023-05-04T06:26:59.227Z,100671.43
2023-05-04T06:29:59.238Z,100669.81
2023-05-04T06:33:02.042Z,100666.16
2023-05-04T06:36:05.178Z,100674.92
2023-05-04T06:39:05.233Z,100672.39
2023-05-04T06:42:07.269Z,100676.43
2023-05-04T06:45:07.174Z,100671.05
2023-05-04T06:48:08.295Z,100669.02
2023-05-04T06:51:08.206Z,100656.82
2023-05-04T06:54:09.221Z,100656.09
2023-05-04T06:57:09.186Z,100663.06
2023-05-04T07:00:10.211Z,100659.46
2023-05-04T07:03:11.452Z,100651.33
2023-05-04T07:06:11.283Z,100645.10
2023-05-04T07:09:11.280Z,100646.49
2023-05-04T07:12:12.231Z,100652.83
2023-05-04T07:15:12.280Z,100653.52
2023-05-04T07:18:13.281Z,100648.77
2023-05-04T07:21:26.745Z,100650.39
2023-05-04T07:24:29.406Z,100651.98
2023-05-04T07:27:29.336Z,100656.73
2023-05-04T07:30:29.450Z,100655.41
2023-05-04T07:33:29.304Z,100657.09
2023-05-04T07:36:31.374Z,100655.84
2023-05-04T07:39:31.792Z,100650.24
2023-05-04T07:42:34.445Z,100647.61
2023-05-04T07:45:35.237Z,100650.06
2023-05-04T07:48:35.296Z,100655.48
2023-05-04T07:51:36.305Z,100665.20
2023-05-04T07:54:36.373Z,100662.69
2023-05-04T07:57:38.360Z,100665.24
2023-05-04T08:00:38.322Z,100667.48
2023-05-04T08:03:38.325Z,100657.17
2023-05-04T08:06:39.346Z,100656.02
2023-05-04T08:09:41.529Z,100667.53
2023-05-04T08:12:42.399Z,100663.83
2023-05-04T08:15:43.471Z,100662.73
2023-05-04T08:18:43.365Z,100666.36
2023-05-04T08:21:36.466Z,100663.98
2023-05-04T08:24:36.343Z,100661.15
2023-05-04T08:27:36.404Z,100652.30
2023-05-04T08:30:37.400Z,100651.61
2023-05-04T08:33:38.418Z,100643.52
2023-05-04T08:36:38.384Z,100635.04
2023-05-04T08:39:40.500Z,100637.40
2023-05-04T08:42:46.398Z,100633.73
2023-05-04T08:45:46.431Z,100632.30
2023-05-04T08:48:46.547Z,100630.66
2023-05-04T08:58:39.257Z,100630.45
2023-05-04T09:01:57.060Z,100628.59
2023-05-04T09:05:04.773Z,100628.88
2023-05-04T09:08:06.734Z,100632.19
2023-05-04T09:11:07.626Z,100640.89
2023-05-04T09:14:08.446Z,100643.05
2023-05-04T09:17:08.534Z,100638.08
2023-05-04T09:20:13.505Z,100640.86
2023-05-04T09:23:16.660Z,100641.23
2023-05-04T09:26:16.504Z,100639.88
2023-05-04T09:29:31.567Z,100639.02
2023-05-04T09:32:31.564Z,100645.08
2023-05-04T09:35:42.586Z,100643.64
2023-05-04T09:38:43.551Z,100639.92
2023-05-04T09:41:46.537Z,100634.10
2023-05-04T09:45:00.321Z,100630.00
2023-05-04T09:49:16.237Z,100633.13
2023-05-04T09:52:38.097Z,100634.81
2023-05-04T09:55:45.556Z,100631.85
2023-05-04T09:58:46.598Z,100627.23
2023-05-04T10:01:46.614Z,100625.02
2023-05-04T10:04:46.596Z,100626.78
2023-05-04T10:07:46.640Z,100619.25
2023-05-04T10:10:46.628Z,100610.48
2023-05-04T10:13:46.609Z,100608.73
2023-05-04T10:16:54.614Z,100606.41
2023-05-04T10:20:13.580Z,100605.25
2023-05-04T10:23:32.671Z,100605.73
2023-05-04T10:26:34.656Z,100601.98
2023-05-04T10:29:39.610Z,100600.59
2023-05-04T10:32:45.658Z,100598.20
2023-05-04T10:35:45.595Z,100594.10
2023-05-04T10:38:48.693Z,100592.39
2023-05-04T10:41:49.578Z,100585.42
2023-05-04T10:44:49.659Z,100583.65
2023-05-04T10:47:50.655Z,100579.59
2023-05-04T10:51:02.661Z,100577.27
2023-05-04T10:54:06.649Z,100577.59
2023-05-04T10:57:15.641Z,100575.27
2023-05-04T11:00:15.749Z,100573.92
2023-05-04T11:03:35.880Z,100571.66
2023-05-04T11:06:44.922Z,100572.09
2023-05-04T11:10:16.812Z,100580.23
2023-05-04T11:13:29.013Z,100579.92
2023-05-04T11:16:40.712Z,100576.39
2023-05-04T11:19:40.662Z,100572.42
2023-05-04T11:22:40.805Z,100571.00
2023-05-04T11:25:41.684Z,100564.96
2023-05-04T11:28:44.716Z,100570.76
2023-05-04T11:31:44.868Z,100568.17
2023-05-04T11:34:44.743Z,100568.71
2023-05-04T11:37:45.745Z,100566.04
2023-05-04T11:40:50.704Z,100553.26
2023-05-04T11:43:51.822Z,100549.60
2023-05-04T11:46:51.874Z,100548.98
2023-05-04T11:49:53.841Z,100544.17
2023-05-04T11:52:54.786Z,100540.23
2023-05-04T11:55:54.795Z,100532.14
2023-05-04T11:58:54.765Z,100525.35
2023-05-04T12:01:55.757Z,100528.08
2023-05-04T12:04:56.820Z,100519.65
2023-05-04T12:07:57.792Z,100519.19
2023-05-04T12:10:57.832Z,100515.47
2023-05-04T12:13:57.821Z,100508.20
2023-05-04T12:17:08.916Z,100506.55
2023-05-04T12:20:08.810Z,100504.19
2023-05-04T12:23:08.882Z,100506.02
2023-05-04T12:26:09.841Z,100506.27
2023-05-04T12:29:09.833Z,100504.39
2023-05-04T12:32:09.920Z,100503.94
2023-05-04T12:35:10.910Z,100503.65
2023-05-04T12:38:12.132Z,100501.46
2023-05-04T12:41:11.791Z,100503.61
2023-05-04T12:44:11.908Z,100499.73
2023-05-04T12:47:12.853Z,100498.05
2023-05-04T12:50:12.881Z,100499.17
2023-05-04T12:53:12.862Z,100498.13
2023-05-04T12:56:12.895Z,100488.78
2023-05-04T12:59:06.088Z,100483.78
2023-05-04T13:02:05.958Z,100486.05
2023-05-04T13:05:06.062Z,100493.91
2023-05-04T13:08:07.043Z,100489.45
2023-05-04T13:11:06.869Z,100492.36
2023-05-04T13:14:06.885Z,100490.81
2023-05-04T13:17:06.873Z,100485.08
2023-05-04T13:20:08.145Z,100480.62
2023-05-04T13:23:08.908Z,100476.84
2023-05-04T13:26:09.006Z,100472.19
2023-05-04T13:29:08.920Z,100469.65
2023-05-04T13:32:08.903Z,100472.73
2023-05-04T13:35:15.952Z,100469.29
2023-05-04T13:38:16.045Z,100467.27
2023-05-04T13:41:16.086Z,100465.95
2023-05-04T13:44:17.007Z,100466.14
2023-05-04T13:47:17.031Z,100466.16
2023-05-04T13:50:16.950Z,100465.48
2023-05-04T13:53:19.963Z,100466.05
2023-05-04T13:56:19.979Z,100459.79
2023-05-04T13:59:19.971Z,100459.31
2023-05-04T14:02:21.196Z,100462.11
2023-05-04T14:05:20.969Z,100468.55
2023-05-04T14:12:01.259Z,100469.77
2023-05-04T14:15:08.015Z,100471.55
2023-05-04T14:18:25.646Z,100467.89
2023-05-04T14:21:42.368Z,100472.79
2023-05-04T14:24:46.190Z,100475.92
2023-05-04T14:27:54.472Z,100473.65
2023-05-04T14:30:57.113Z,100474.12
2023-05-04T14:33:58.060Z,100475.31
2023-05-04T14:36:58.083Z,100473.20
2023-05-04T14:39:57.994Z,100473.35
2023-05-04T14:42:58.076Z,100468.42
2023-05-04T14:46:00.153Z,100469.55
2023-05-04T14:49:00.093Z,100469.30
2023-05-04T14:52:00.076Z,100472.52
2023-05-04T14:55:00.066Z,100470.50
2023-05-04T14:58:00.082Z,100480.11
2023-05-04T15:01:00.172Z,100476.42
2023-05-04T15:04:00.147Z,100481.59
2023-05-04T15:07:01.050Z,100483.38
2023-05-04T15:10:01.105Z,100484.70
2023-05-04T15:13:01.245Z,100483.20
2023-05-04T15:16:01.115Z,100483.06
2023-05-04T15:19:02.255Z,100482.41
2023-05-04T15:22:02.532Z,100482.02
2023-05-04T15:25:03.234Z,100485.84
2023-05-04T15:28:03.242Z,100489.02
2023-05-04T15:31:03.180Z,100491.69
2023-05-04T15:34:03.403Z,100490.19
2023-05-04T15:37:03.176Z,100487.84
2023-05-04T15:40:03.235Z,100490.81
2023-05-04T15:43:10.304Z,100494.20
2023-05-04T15:46:14.662Z,100495.23
2023-05-04T15:49:24.318Z,100504.16
2023-05-04T15:52:31.264Z,100504.16
2023-05-04T15:55:43.400Z,100500.83
2023-05-04T16:02:12.244Z,100504.02
2023-05-04T16:05:06.190Z,100505.47
2023-05-04T16:08:07.234Z,100510.36
2023-05-04T16:11:08.629Z,100508.83
2023-05-04T16:14:10.218Z,100516.66
2023-05-04T16:17:11.151Z,100519.96
2023-05-04T16:20:14.460Z,100526.44
2023-05-04T16:23:14.234Z,100529.86
2023-05-04T16:26:15.201Z,100536.02
2023-05-04T16:29:20.677Z,100540.71
2023-05-04T16:32:21.219Z,100540.52
2023-05-04T16:35:21.464Z,100543.38
2023-05-04T16:38:21.240Z,100543.45
2023-05-04T16:41:21.332Z,100546.33
2023-05-04T16:44:21.310Z,100544.17
2023-05-04T16:47:21.410Z,100551.33
2023-05-04T16:50:17.317Z,100552.43
2023-05-04T16:53:17.296Z,100553.70
2023-05-04T16:56:17.314Z,100565.19
2023-05-04T16:59:17.272Z,100570.84
2023-05-04T17:02:17.284Z,100571.33
2023-05-04T17:05:36.386Z,100573.21
2023-05-04T17:08:57.723Z,100577.71
2023-05-04T17:11:59.743Z,100573.41
2023-05-04T17:15:01.569Z,100579.98
2023-05-04T17:18:03.505Z,100580.75
2023-05-04T17:21:04.388Z,100584.79
2023-05-04T17:24:05.596Z,100591.70
2023-05-04T17:27:05.359Z,100597.71
2023-05-04T17:30:05.474Z,100606.44
2023-05-04T17:33:05.585Z,100611.36
2023-05-04T17:36:05.387Z,100607.10
2023-05-04T17:39:05.348Z,100607.20
2023-05-04T17:42:05.368Z,100603.68
2023-05-04T17:45:05.349Z,100607.92
2023-05-04T17:48:07.934Z,100608.93
2023-05-04T17:51:08.389Z,100597.98
2023-05-04T17:54:08.425Z,100588.96
2023-05-04T17:57:08.367Z,100581.98
2023-05-04T18:00:08.560Z,100591.62
2023-05-04T18:03:09.570Z,100604.55
2023-05-04T18:06:09.400Z,100601.70
2023-05-04T18:09:09.377Z,100604.92
2023-05-04T18:12:10.454Z,100613.14
2023-05-04T18:15:14.503Z,100614.67
2023-05-04T18:18:16.493Z,100622.97
2023-05-04T18:21:18.546Z,100630.59
2023-05-04T18:24:20.031Z,100622.04
2023-05-04T18:27:22.689Z,100617.84
2023-05-04T18:30:22.444Z,100611.23
2023-05-04T18:33:22.580Z,100615.08
2023-05-04T18:36:23.495Z,100605.61
2023-05-04T18:39:23.494Z,100608.48
2023-05-04T18:42:23.413Z,100618.77
2023-05-04T18:45:23.516Z,100621.68
2023-05-04T18:48:23.434Z,100625.80
2023-05-04T18:51:23.476Z,100626.83
2023-05-04T18:54:23.457Z,100615.27
2023-05-04T18:57:23.973Z,100608.45
2023-05-04T19:00:24.527Z,100617.80
2023-05-04T19:03:24.701Z,100624.02
2023-05-04T19:06:24.662Z,100624.77
2023-05-04T19:09:24.538Z,100626.54
2023-05-04T19:12:24.494Z,100637.14
2023-05-04T19:15:24.552Z,100638.23
2023-05-04T19:18:24.602Z,100635.68
2023-05-04T19:21:24.459Z,100638.74
2023-05-04T19:24:24.509Z,100649.70
2023-05-04T19:27:24.491Z,100663.91
2023-05-04T19:30:24.558Z,100667.27
2023-05-04T19:33:28.176Z,100666.80
2023-05-04T19:36:36.583Z,100659.98
2023-05-04T19:39:37.567Z,100656.08
2023-05-04T19:42:37.622Z,100650.48
2023-05-04T19:45:38.590Z,100645.67
2023-05-04T19:48:39.567Z,100636.75
2023-05-04T19:51:39.608Z,100620.96
2023-05-04T19:54:39.548Z,100618.56
2023-05-04T19:57:39.612Z,100628.44
2023-05-04T20:00:39.682Z,100634.96
2023-05-04T20:03:39.570Z,100628.80
2023-05-04T20:06:40.591Z,100613.39
2023-05-04T20:09:40.588Z,100602.91
2023-05-04T20:12:41.609Z,100602.77
2023-05-04T20:15:44.613Z,100600.49
2023-05-04T20:18:44.636Z,100583.37
2023-05-04T20:21:37.728Z,100587.77
2023-05-04T20:24:37.662Z,100597.33
2023-05-04T20:27:37.578Z,100613.12
2023-05-04T20:30:37.620Z,100619.85
2023-05-04T20:33:38.619Z,100633.48
2023-05-04T20:36:39.640Z,100619.86
2023-05-04T20:39:39.661Z,100612.05
2023-05-04T20:42:39.661Z,100597.73
2023-05-04T20:45:39.653Z,100588.81
2023-05-04T20:48:40.839Z,100575.55
2023-05-04T20:51:40.719Z,100574.45
2023-05-04T20:54:41.673Z,100574.67
2023-05-04T20:57:41.770Z,100574.60
2023-05-04T21:00:42.751Z,100583.89
2023-05-04T21:03:42.848Z,100579.73
2023-05-04T21:06:42.679Z,100588.50
2023-05-04T21:09:42.676Z,100602.67
2023-05-04T21:12:42.769Z,100605.28
2023-05-04T21:15:35.845Z,100601.71
2023-05-04T21:18:35.711Z,100593.55
2023-05-04T21:21:42.689Z,100602.21
2023-05-04T21:24:42.746Z,100608.43
2023-05-04T21:27:44.323Z,100613.30
2023-05-04T21:30:44.712Z,100623.05
2023-05-04T21:33:44.794Z,100632.81
2023-05-04T21:36:44.764Z,100642.87
2023-05-04T21:39:44.898Z,100638.91
2023-05-04T21:42:44.746Z,100628.30
2023-05-04T21:45:44.762Z,100612.13
2023-05-04T21:48:46.804Z,100606.77
2023-05-04T21:51:48.739Z,100593.36
2023-05-04T21:54:51.087Z,100574.36
2023-05-04T21:57:51.811Z,100563.64
2023-05-04T22:00:51.919Z,100557.36
2023-05-04T22:03:51.796Z,100571.77
2023-05-04T22:06:53.872Z,100591.60
2023-05-04T22:09:53.801Z,100615.08
2023-05-04T22:12:54.844Z,100631.25
2023-05-04T22:15:50.590Z,100628.40
2023-05-04T22:18:53.838Z,100627.73
2023-05-04T22:21:53.817Z,100638.41
2023-05-04T22:24:54.824Z,100628.81
2023-05-04T22:27:54.827Z,100618.25
2023-05-04T22:30:55.849Z,100619.34
2023-05-04T22:33:55.802Z,100613.55
2023-05-04T22:36:55.823Z,100616.61
2023-05-04T22:39:55.882Z,100614.13
2023-05-04T22:42:57.875Z,100607.86
2023-05-04T22:45:57.926Z,100603.77
2023-05-04T22:49:00.925Z,100598.73
2023-05-04T22:52:00.879Z,100588.37
2023-05-04T22:55:01.032Z,100578.53
2023-05-04T22:58:00.895Z,100585.61
2023-05-04T23:01:00.928Z,100589.20
2023-05-04T23:04:00.904Z,100588.88
2023-05-04T23:07:01.884Z,100588.91
2023-05-04T23:10:01.860Z,100585.70
2023-05-04T23:13:02.939Z,100586.33
2023-05-04T23:16:02.949Z,100586.71
2023-05-04T23:19:02.953Z,100586.92
2023-05-04T23:22:05.184Z,100591.66
2023-05-04T23:25:04.945Z,100594.84
2023-05-04T23:28:04.914Z,100596.22
2023-05-04T23:31:04.904Z,100591.41
2023-05-04T23:34:04.917Z,100586.54
2023-05-04T23:37:05.947Z,100586.19
2023-05-04T23:40:06.063Z,100578.91
2023-05-04T23:43:05.933Z,100570.63
2023-05-04T23:46:15.039Z,100565.27
2023-05-04T23:49:14.967Z,100559.31
2023-05-04T23:52:14.987Z,100560.06
2023-05-04T23:55:19.037Z,100549.67
2023-05-04T23:58:18.972Z,100549.13
